18:17
Airports
History
Links
Donate
Help keep this website running!
PayPal
Bitcoin
This page is community maintained. The information is intended for PC simulator navigation or reference.
Always use approved charts for navigation.
YBGP
BOGONG PARK
BOGONG PARK (YBGP)
Barnawartha North, Victoria, Australia (3691)
4
Lat/Lng:36° 3' 17.13" S / 146° 42' 38.89" E
-36.054758 / 146.710802
Elevation:519'ft / 158mMSL
ID / ICAO:YBGP
Runways:1
Longest:1-19
Grass 1,110m / 3,643ft
Nearby Weather18:00 GMT 2017-10-19
Nearby weather at YMAY, Albury Airport located 13.9 nautical miles from YBGP
Altimeter: 30.06
Visibility: 6.2 statute miles
Wind: 0 knots (from 000°)
Temp: 17°c / 63°f
Humidity: 100.0%

METAR: YMAY 191800Z AUTO 00000KT 9999 // OVC005 17/17 Q1018

(Powered by phpweather)
Runway 1 / 19
Dimensions:1110.4 x 75.9m 3643' x 249'ft
Surface:Grass
Runway 1 [A]Runway 19 [B]
Heading:186°TH 006°TH
Lat:
Lng:
36° 2' 59.29"S
146° 42' 41.4"E
36° 3' 34.97"S
146° 42' 36.37"E
User Notes and Comments
36° 3' 17.13" S / 146° 42' 38.89" E
Distance To
Airport ID:
Nearby Airports
4 AVONDALE 3.7 NM
YAVN NNE 23°
(C) Albury Airport 13.9 NM
YMAY ( WX ) E 93°
(U) Corowa 20.5 NM
YCOR WNW 282°
4 Milawa 31.8 NM
YILA SSW 209°
(U) Wangaratta 33.7 NM
YWGT SW 222°
(U) Yarrawonga 38.3 NM
YYWG W 272°
4 Holbrook 42.9 NM
YHBK NE 52°
VFR Chart
Flight Planning at SkyVector.com